createdAt,value
2017-08-17T00:00:08.228Z,1007.7
2017-08-17T00:01:09.850Z,1007.7
2017-08-17T00:02:11.477Z,1007.8
2017-08-17T00:03:13.104Z,1007.8
2017-08-17T00:04:14.730Z,1007.8
2017-08-17T00:05:16.344Z,1007.7
2017-08-17T00:06:17.969Z,1007.7
2017-08-17T00:07:19.595Z,1007.7
2017-08-17T00:08:21.213Z,1007.7
2017-08-17T00:09:22.831Z,1007.6
2017-08-17T00:10:24.464Z,1007.6
2017-08-17T00:11:26.088Z,1007.5
2017-08-17T00:12:27.713Z,1007.6
2017-08-17T00:13:29.346Z,1007.5
2017-08-17T00:14:30.968Z,1007.6
2017-08-17T00:15:32.592Z,1007.5
2017-08-17T00:16:34.207Z,1007.6
2017-08-17T00:17:35.827Z,1007.5
2017-08-17T00:18:37.463Z,1007.6
2017-08-17T00:19:39.084Z,1007.5
2017-08-17T00:20:40.704Z,1007.5
2017-08-17T00:21:42.329Z,1007.5
2017-08-17T00:22:43.967Z,1007.5
2017-08-17T00:23:45.598Z,1007.5
2017-08-17T00:24:47.220Z,1007.5
2017-08-17T00:25:48.844Z,1007.4
2017-08-17T00:26:51.884Z,1007.4
2017-08-17T00:27:53.496Z,1007.4
2017-08-17T00:28:55.113Z,1007.4
2017-08-17T00:29:56.730Z,1007.4
2017-08-17T00:30:58.352Z,1007.4
2017-08-17T00:31:59.980Z,1007.4
2017-08-17T00:33:01.609Z,1007.4
2017-08-17T00:34:03.241Z,1007.4
2017-08-17T00:35:04.860Z,1007.4
2017-08-17T00:36:06.486Z,1007.4
2017-08-17T00:37:08.111Z,1007.4
2017-08-17T00:38:09.733Z,1007.4
2017-08-17T00:39:11.351Z,1007.4
2017-08-17T00:40:12.984Z,1007.4
2017-08-17T00:41:14.609Z,1007.4
2017-08-17T00:42:16.230Z,1007.4
2017-08-17T00:43:17.848Z,1007.4
2017-08-17T00:44:19.472Z,1007.4
2017-08-17T00:45:21.100Z,1007.4
2017-08-17T00:46:22.720Z,1007.4
2017-08-17T00:47:24.347Z,1007.4
2017-08-17T00:48:25.976Z,1007.3
2017-08-17T00:49:27.592Z,1007.3
2017-08-17T00:50:29.211Z,1007.3
2017-08-17T00:51:30.842Z,1007.4
2017-08-17T00:52:32.469Z,1007.4
2017-08-17T00:53:34.088Z,1007.4
2017-08-17T00:54:35.709Z,1007.4
2017-08-17T00:55:37.343Z,1007.4
2017-08-17T00:56:38.965Z,1007.4
2017-08-17T00:57:40.585Z,1007.4
2017-08-17T00:58:42.208Z,1007.4
2017-08-17T00:59:43.833Z,1007.4
2017-08-17T01:00:45.465Z,1007.4
2017-08-17T01:01:47.083Z,1007.4
2017-08-17T01:02:48.711Z,1007.4
2017-08-17T01:03:50.331Z,1007.4
2017-08-17T01:04:51.951Z,1007.4
2017-08-17T01:05:53.582Z,1007.4
2017-08-17T01:06:55.211Z,1007.4
2017-08-17T01:07:56.829Z,1007.4
2017-08-17T01:08:58.455Z,1007.4
2017-08-17T01:10:00.083Z,1007.4
2017-08-17T01:11:01.709Z,1007.4
2017-08-17T01:12:03.329Z,1007.4
2017-08-17T01:13:04.950Z,1007.4
2017-08-17T01:14:06.578Z,1007.4
2017-08-17T01:15:08.214Z,1007.4
2017-08-17T01:16:09.834Z,1007.4
2017-08-17T01:17:11.457Z,1007.4
2017-08-17T01:18:13.092Z,1007.3
2017-08-17T01:19:14.707Z,1007.3
2017-08-17T01:20:16.326Z,1007.3
2017-08-17T01:21:17.959Z,1007.3
2017-08-17T01:22:19.584Z,1007.3
2017-08-17T01:23:21.208Z,1007.3
2017-08-17T01:24:22.830Z,1007.3
2017-08-17T01:25:24.454Z,1007.3
2017-08-17T01:26:26.083Z,1007.2
2017-08-17T01:27:27.701Z,1007.2
2017-08-17T01:28:29.324Z,1007.2
2017-08-17T01:29:30.949Z,1007.2
2017-08-17T01:30:32.578Z,1007.2
2017-08-17T01:31:34.215Z,1007.2
2017-08-17T01:32:35.831Z,1007.2
2017-08-17T01:33:37.455Z,1007.2
2017-08-17T01:34:39.076Z,1007.2
2017-08-17T01:35:40.698Z,1007.2
2017-08-17T01:36:42.329Z,1007.2
2017-08-17T01:37:43.945Z,1007.2
2017-08-17T01:38:45.569Z,1007.1
2017-08-17T01:39:47.198Z,1007.2
2017-08-17T01:40:48.820Z,1007.2
2017-08-17T01:41:50.443Z,1007.2
2017-08-17T01:42:52.063Z,1007.2
2017-08-17T01:43:53.695Z,1007.2
2017-08-17T01:44:55.318Z,1007.2
2017-08-17T01:45:56.940Z,1007.1
2017-08-17T01:46:58.559Z,1007.1
2017-08-17T01:48:00.175Z,1007.2
2017-08-17T01:49:01.805Z,1007.1
2017-08-17T01:50:03.422Z,1007.1
2017-08-17T01:51:05.045Z,1007.1
2017-08-17T01:52:06.678Z,1007.1
2017-08-17T01:53:08.303Z,1007.1
2017-08-17T01:54:09.928Z,1007.1
2017-08-17T01:55:11.552Z,1007.1
2017-08-17T01:56:15.999Z,1007.1
2017-08-17T01:57:17.629Z,1007.1
2017-08-17T01:58:19.246Z,1007.0
2017-08-17T01:59:20.868Z,1007.0
2017-08-17T02:00:22.508Z,1007.0
2017-08-17T02:01:24.152Z,1007.0
2017-08-17T02:02:25.774Z,1007.0
2017-08-17T02:03:27.392Z,1007.0
2017-08-17T02:04:29.016Z,1007.0
2017-08-17T02:05:30.642Z,1006.9
2017-08-17T02:06:32.273Z,1006.9
2017-08-17T02:07:33.892Z,1006.9
2017-08-17T02:08:35.511Z,1006.9
2017-08-17T02:09:37.140Z,1006.9
2017-08-17T02:10:38.764Z,1006.9
2017-08-17T02:11:40.381Z,1006.9
2017-08-17T02:12:42.002Z,1006.9
2017-08-17T02:13:43.633Z,1006.9
2017-08-17T02:14:45.248Z,1006.9
2017-08-17T02:15:46.865Z,1006.9
2017-08-17T02:16:48.483Z,1007.0
2017-08-17T02:17:50.109Z,1007.0
2017-08-17T02:18:51.738Z,1006.9
2017-08-17T02:19:53.356Z,1007.0
2017-08-17T02:20:54.974Z,1007.0
2017-08-17T02:21:56.612Z,1007.0
2017-08-17T02:22:58.226Z,1007.0
2017-08-17T02:23:59.845Z,1007.0
2017-08-17T02:25:01.466Z,1007.0
2017-08-17T02:26:03.084Z,1007.0
2017-08-17T02:27:04.714Z,1007.0
2017-08-17T02:28:06.338Z,1007.1
2017-08-17T02:29:07.957Z,1007.1
2017-08-17T02:30:09.576Z,1007.1
2017-08-17T02:31:11.200Z,1007.1
2017-08-17T02:32:12.827Z,1007.1
2017-08-17T02:33:14.445Z,1007.1
2017-08-17T02:34:16.071Z,1007.1
2017-08-17T02:35:17.699Z,1007.2
2017-08-17T02:36:19.329Z,1007.1
2017-08-17T02:37:20.947Z,1007.1
2017-08-17T02:38:22.565Z,1007.1
2017-08-17T02:39:24.196Z,1007.1
2017-08-17T02:40:25.818Z,1007.1
2017-08-17T02:41:27.435Z,1007.1
2017-08-17T02:42:29.058Z,1007.1
2017-08-17T02:43:30.686Z,1007.1
2017-08-17T02:44:32.311Z,1007.0
2017-08-17T02:45:33.933Z,1007.1
2017-08-17T02:46:35.554Z,1007.1
2017-08-17T02:47:37.188Z,1007.1
2017-08-17T02:48:38.813Z,1007.1
2017-08-17T02:49:40.430Z,1007.1
2017-08-17T02:50:42.053Z,1007.1
2017-08-17T02:51:43.684Z,1007.0
2017-08-17T02:52:45.309Z,1007.0
2017-08-17T02:53:46.922Z,1007.0
2017-08-17T02:54:48.544Z,1007.0
2017-08-17T02:55:50.171Z,1007.0
2017-08-17T02:56:51.806Z,1006.9
2017-08-17T02:57:53.438Z,1006.9
2017-08-17T02:58:55.055Z,1006.9
2017-08-17T02:59:56.677Z,1006.9
2017-08-17T03:00:58.301Z,1006.9
2017-08-17T03:01:59.925Z,1006.9
2017-08-17T03:03:01.542Z,1006.9
2017-08-17T03:04:03.170Z,1006.9
2017-08-17T03:05:04.800Z,1006.9
2017-08-17T03:06:06.422Z,1006.9
2017-08-17T03:07:08.043Z,1007.0
2017-08-17T03:08:09.661Z,1007.0
2017-08-17T03:09:11.294Z,1007.0
2017-08-17T03:10:12.924Z,1007.0
2017-08-17T03:11:14.545Z,1007.0
2017-08-17T03:12:16.168Z,1007.0
2017-08-17T03:13:17.797Z,1007.0
2017-08-17T03:14:19.413Z,1007.0
2017-08-17T03:15:21.032Z,1006.9
2017-08-17T03:16:22.651Z,1006.9
2017-08-17T03:17:24.284Z,1006.9
2017-08-17T03:18:25.918Z,1006.8
2017-08-17T03:19:27.539Z,1006.8
2017-08-17T03:20:29.169Z,1006.9
2017-08-17T03:21:30.792Z,1006.8
2017-08-17T03:22:32.419Z,1006.9
2017-08-17T03:23:34.037Z,1006.9
2017-08-17T03:24:35.661Z,1006.9
2017-08-17T03:25:37.297Z,1006.9
2017-08-17T03:26:38.920Z,1006.9
2017-08-17T03:27:40.544Z,1006.9
2017-08-17T03:28:42.163Z,1007.0
2017-08-17T03:29:43.792Z,1007.0
2017-08-17T03:30:45.424Z,1007.0
2017-08-17T03:31:47.054Z,1006.9
2017-08-17T03:32:48.676Z,1007.0
2017-08-17T03:33:50.301Z,1007.0
2017-08-17T03:34:51.921Z,1007.0
2017-08-17T03:35:53.549Z,1006.9
2017-08-17T03:36:55.169Z,1007.0
2017-08-17T03:37:56.790Z,1006.9
2017-08-17T03:38:58.417Z,1006.9
2017-08-17T03:40:00.048Z,1006.9
2017-08-17T03:41:01.673Z,1006.9
2017-08-17T03:42:03.296Z,1006.9
2017-08-17T03:43:04.923Z,1007.0
2017-08-17T03:44:06.547Z,1007.0
2017-08-17T03:45:08.166Z,1007.0
2017-08-17T03:46:09.788Z,1007.0
2017-08-17T03:47:11.420Z,1007.0
2017-08-17T03:48:13.046Z,1007.0
2017-08-17T03:49:14.663Z,1007.0
2017-08-17T03:50:16.286Z,1006.9
2017-08-17T03:51:17.930Z,1006.9
2017-08-17T03:52:19.555Z,1006.9
2017-08-17T03:53:21.175Z,1006.9
2017-08-17T03:54:22.795Z,1006.9
2017-08-17T03:55:24.430Z,1006.9
2017-08-17T03:56:26.049Z,1006.9
2017-08-17T03:57:27.669Z,1006.9
2017-08-17T03:58:29.290Z,1006.9
2017-08-17T03:59:30.916Z,1006.9
2017-08-17T04:00:32.553Z,1006.9
2017-08-17T04:01:34.169Z,1006.9
2017-08-17T04:02:35.793Z,1006.9
2017-08-17T04:03:37.438Z,1006.9
2017-08-17T04:04:39.058Z,1006.8
2017-08-17T04:05:40.680Z,1006.9
2017-08-17T04:06:42.308Z,1006.8
2017-08-17T04:07:43.928Z,1006.8
2017-08-17T04:08:45.563Z,1006.8
2017-08-17T04:09:47.190Z,1006.8
2017-08-17T04:10:48.808Z,1006.8
2017-08-17T04:11:50.435Z,1006.8
2017-08-17T04:12:52.056Z,1006.8
2017-08-17T04:13:53.677Z,1006.9
2017-08-17T04:14:55.312Z,1006.8
2017-08-17T04:15:56.945Z,1006.8
2017-08-17T04:16:58.568Z,1006.8
2017-08-17T04:18:00.189Z,1006.8
2017-08-17T04:19:01.828Z,1006.8
2017-08-17T04:20:03.451Z,1006.8
2017-08-17T04:21:05.073Z,1006.8
2017-08-17T04:22:06.695Z,1006.8
2017-08-17T04:23:08.328Z,1006.8
2017-08-17T04:24:09.951Z,1006.8
2017-08-17T04:25:11.578Z,1006.7
2017-08-17T04:26:13.206Z,1006.7
2017-08-17T04:27:14.829Z,1006.7
2017-08-17T04:28:16.461Z,1006.8
2017-08-17T04:29:18.089Z,1006.8
2017-08-17T04:30:19.714Z,1006.8
2017-08-17T04:31:21.344Z,1006.8
2017-08-17T04:32:22.970Z,1006.7
2017-08-17T04:33:24.590Z,1006.7
2017-08-17T04:34:26.211Z,1006.7
2017-08-17T04:35:27.846Z,1006.7
2017-08-17T04:36:29.469Z,1006.7
2017-08-17T04:37:31.095Z,1006.6
2017-08-17T04:38:32.723Z,1006.7
2017-08-17T04:39:34.349Z,1006.6
2017-08-17T04:40:35.975Z,1006.6
2017-08-17T04:41:37.600Z,1006.6
2017-08-17T04:42:39.220Z,1006.6
2017-08-17T04:43:40.858Z,1006.6
2017-08-17T04:44:42.483Z,1006.6
2017-08-17T04:45:44.113Z,1006.6
2017-08-17T04:46:45.737Z,1006.6
2017-08-17T04:47:47.373Z,1006.6
2017-08-17T04:48:49.007Z,1006.6
2017-08-17T04:49:50.630Z,1006.6
2017-08-17T04:50:52.255Z,1006.5
2017-08-17T04:51:53.883Z,1006.5
2017-08-17T04:52:55.510Z,1006.5
2017-08-17T04:53:57.134Z,1006.5
2017-08-17T04:54:59.402Z,1006.5
2017-08-17T04:56:01.034Z,1006.4
2017-08-17T04:57:02.671Z,1006.4
2017-08-17T04:58:04.293Z,1006.4
2017-08-17T04:59:05.918Z,1006.5
2017-08-17T05:00:07.552Z,1006.4
2017-08-17T05:01:09.176Z,1006.4
2017-08-17T05:02:10.797Z,1006.4
2017-08-17T05:03:12.421Z,1006.4
2017-08-17T05:04:14.051Z,1006.4
2017-08-17T05:05:15.676Z,1006.4
2017-08-17T05:06:17.306Z,1006.5
2017-08-17T05:07:18.929Z,1006.5
2017-08-17T05:08:20.562Z,1006.5
2017-08-17T05:09:22.184Z,1006.4
2017-08-17T05:10:23.814Z,1006.5
2017-08-17T05:11:25.446Z,1006.4
2017-08-17T05:12:27.066Z,1006.4
2017-08-17T05:13:28.697Z,1006.4
2017-08-17T05:14:30.323Z,1006.4
2017-08-17T05:15:31.945Z,1006.3
2017-08-17T05:16:33.579Z,1006.3
2017-08-17T05:17:35.203Z,1006.3
2017-08-17T05:18:36.840Z,1006.3
2017-08-17T05:19:38.469Z,1006.3
2017-08-17T05:20:40.093Z,1006.3
2017-08-17T05:21:41.721Z,1006.3
2017-08-17T05:22:43.659Z,1006.3
2017-08-17T05:23:45.297Z,1006.3
2017-08-17T05:24:47.532Z,1006.3
2017-08-17T05:25:49.536Z,1006.3
2017-08-17T05:26:51.597Z,1006.3
2017-08-17T05:27:53.593Z,1006.3
2017-08-17T05:28:55.455Z,1006.2
2017-08-17T05:29:57.502Z,1006.3
2017-08-17T05:30:59.407Z,1006.3
2017-08-17T05:32:01.031Z,1006.3
2017-08-17T05:33:02.661Z,1006.3
2017-08-17T05:34:04.284Z,1006.3
2017-08-17T05:35:05.916Z,1006.3
2017-08-17T05:36:07.560Z,1006.3
2017-08-17T05:37:09.184Z,1006.3
2017-08-17T05:38:10.811Z,1006.3
2017-08-17T05:39:12.449Z,1006.3
2017-08-17T05:40:14.079Z,1006.3
2017-08-17T05:41:15.704Z,1006.3
2017-08-17T05:42:17.333Z,1006.3
2017-08-17T05:43:18.974Z,1006.3
2017-08-17T05:44:20.614Z,1006.3
2017-08-17T05:45:22.229Z,1006.3
2017-08-17T05:46:23.854Z,1006.3
2017-08-17T05:47:25.491Z,1006.3
2017-08-17T05:48:27.120Z,1006.2
2017-08-17T05:49:28.748Z,1006.2
2017-08-17T05:50:30.376Z,1006.2
2017-08-17T05:51:32.008Z,1006.2
2017-08-17T05:52:33.638Z,1006.3
2017-08-17T05:53:35.263Z,1006.3
2017-08-17T05:54:36.895Z,1006.2
2017-08-17T05:55:38.527Z,1006.2
2017-08-17T05:56:40.165Z,1006.2
2017-08-17T05:57:41.789Z,1006.2
2017-08-17T05:58:43.424Z,1006.2
2017-08-17T05:59:45.053Z,1006.2
2017-08-17T06:00:46.684Z,1006.1
2017-08-17T06:01:48.307Z,1006.2
2017-08-17T06:02:49.973Z,1006.2
2017-08-17T06:03:51.606Z,1006.2
2017-08-17T06:04:53.242Z,1006.2
2017-08-17T06:05:54.936Z,1006.2
2017-08-17T06:06:56.570Z,1006.2
2017-08-17T06:07:58.199Z,1006.2
2017-08-17T06:08:59.834Z,1006.1
2017-08-17T06:10:01.458Z,1006.2
2017-08-17T06:11:03.084Z,1006.1
2017-08-17T06:12:04.784Z,1006.1
2017-08-17T06:13:06.413Z,1006.1
2017-08-17T06:14:08.036Z,1006.0
2017-08-17T06:15:09.662Z,1006.0
2017-08-17T06:16:11.294Z,1006.0
2017-08-17T06:17:12.931Z,1006.1
2017-08-17T06:18:14.556Z,1006.1
2017-08-17T06:19:16.249Z,1006.2
2017-08-17T06:20:17.874Z,1006.1
2017-08-17T06:21:19.505Z,1006.2
2017-08-17T06:22:21.141Z,1006.2
2017-08-17T06:23:22.763Z,1006.3
2017-08-17T06:24:24.398Z,1006.3
2017-08-17T06:25:26.079Z,1006.3
2017-08-17T06:26:27.708Z,1006.3
2017-08-17T06:27:29.335Z,1006.3
2017-08-17T06:28:30.968Z,1006.4
2017-08-17T06:29:32.601Z,1006.3
2017-08-17T06:30:34.227Z,1006.3
2017-08-17T06:31:35.855Z,1006.3
2017-08-17T06:32:37.493Z,1006.3
2017-08-17T06:33:39.125Z,1006.3
2017-08-17T06:34:40.747Z,1006.4
2017-08-17T06:35:42.379Z,1006.4
2017-08-17T06:36:44.005Z,1006.4
2017-08-17T06:37:45.655Z,1006.4
2017-08-17T06:38:47.286Z,1006.4
2017-08-17T06:39:48.916Z,1006.3
2017-08-17T06:40:50.553Z,1006.4
2017-08-17T06:41:52.188Z,1006.4
2017-08-17T06:42:53.813Z,1006.3
2017-08-17T06:43:55.439Z,1006.4
2017-08-17T06:44:57.084Z,1006.3
2017-08-17T06:45:58.709Z,1006.3
2017-08-17T06:47:00.338Z,1006.3
2017-08-17T06:48:01.980Z,1006.3
2017-08-17T06:49:03.611Z,1006.2
2017-08-17T06:50:05.246Z,1006.2
2017-08-17T06:51:06.866Z,1006.2
2017-08-17T06:52:08.500Z,1006.3
2017-08-17T06:53:10.136Z,1006.5
2017-08-17T06:54:11.765Z,1006.4
2017-08-17T06:55:13.399Z,1006.3
2017-08-17T06:56:15.030Z,1006.3
2017-08-17T06:57:16.668Z,1006.3
2017-08-17T06:58:18.296Z,1006.3
2017-08-17T06:59:19.928Z,1006.4
2017-08-17T07:00:21.570Z,1006.4
2017-08-17T07:01:23.205Z,1006.3
2017-08-17T07:02:24.836Z,1006.3
2017-08-17T07:03:26.463Z,1006.4
2017-08-17T07:04:28.097Z,1006.4
2017-08-17T07:05:29.734Z,1006.4
2017-08-17T07:06:31.361Z,1006.4
2017-08-17T07:07:32.994Z,1006.4
2017-08-17T07:08:34.637Z,1006.3
2017-08-17T07:09:36.272Z,1006.4
2017-08-17T07:10:37.898Z,1006.4
2017-08-17T07:11:39.528Z,1006.3
2017-08-17T07:12:41.169Z,1006.2
2017-08-17T07:13:42.804Z,1006.2
2017-08-17T07:14:44.434Z,1006.2
2017-08-17T07:15:46.064Z,1006.2
2017-08-17T07:16:47.727Z,1006.2
2017-08-17T07:17:49.338Z,1006.2
2017-08-17T07:18:50.963Z,1006.2
2017-08-17T07:19:52.593Z,1006.2
2017-08-17T07:20:54.237Z,1006.1
2017-08-17T07:21:55.870Z,1006.1
2017-08-17T07:22:57.501Z,1006.1
2017-08-17T07:23:59.138Z,1006.1
2017-08-17T07:25:00.763Z,1006.1
2017-08-17T07:26:02.406Z,1006.1
2017-08-17T07:27:04.032Z,1006.1
2017-08-17T07:28:05.663Z,1006.1
2017-08-17T07:29:07.298Z,1006.1
2017-08-17T07:30:08.929Z,1006.1
2017-08-17T07:31:10.561Z,1006.1
2017-08-17T07:32:12.197Z,1006.0
2017-08-17T07:33:13.835Z,1006.1
2017-08-17T07:34:15.461Z,1006.0
2017-08-17T07:35:17.090Z,1006.0
2017-08-17T07:36:18.725Z,1006.0
2017-08-17T07:37:20.355Z,1006.0
2017-08-17T07:38:21.994Z,1006.0
2017-08-17T07:39:23.616Z,1006.0
2017-08-17T07:40:25.255Z,1006.0
2017-08-17T07:41:26.892Z,1006.0
2017-08-17T07:42:28.524Z,1006.0
2017-08-17T07:43:30.155Z,1006.0
2017-08-17T07:44:31.782Z,1006.1
2017-08-17T07:45:33.423Z,1006.0
2017-08-17T07:46:35.048Z,1005.9
2017-08-17T07:47:36.678Z,1005.9
2017-08-17T07:48:38.308Z,1005.9
2017-08-17T07:49:39.940Z,1005.9
2017-08-17T07:50:41.569Z,1005.9
2017-08-17T07:51:43.196Z,1005.9
2017-08-17T07:52:44.837Z,1005.9
2017-08-17T07:53:46.465Z,1005.9
2017-08-17T07:54:48.093Z,1005.9
2017-08-17T07:55:49.730Z,1005.9
2017-08-17T07:56:51.359Z,1005.9
2017-08-17T07:57:52.984Z,1006.0
2017-08-17T07:58:54.615Z,1005.9
2017-08-17T07:59:56.252Z,1005.9
2017-08-17T08:00:57.888Z,1005.9
2017-08-17T08:01:59.516Z,1006.0
2017-08-17T08:03:01.143Z,1006.0
2017-08-17T08:04:02.778Z,1006.0
2017-08-17T08:05:04.415Z,1006.0
2017-08-17T08:06:06.043Z,1006.0
2017-08-17T08:07:07.674Z,1005.9
2017-08-17T08:08:09.309Z,1005.9
2017-08-17T08:09:10.940Z,1005.9
2017-08-17T08:10:12.566Z,1005.9
2017-08-17T08:11:14.195Z,1005.9
2017-08-17T08:12:15.847Z,1005.9
2017-08-17T08:13:17.466Z,1005.9
2017-08-17T08:14:19.096Z,1005.8
2017-08-17T08:15:20.724Z,1005.9
2017-08-17T08:16:22.363Z,1005.9
2017-08-17T08:17:23.994Z,1005.9
2017-08-17T08:18:25.640Z,1005.9
2017-08-17T08:19:27.252Z,1006.0
2017-08-17T08:20:28.894Z,1005.9
2017-08-17T08:21:30.529Z,1006.0
2017-08-17T08:22:32.153Z,1005.9
2017-08-17T08:23:33.782Z,1006.0
2017-08-17T08:24:35.415Z,1006.0
2017-08-17T08:25:37.053Z,1006.0
2017-08-17T08:26:38.683Z,1006.0
2017-08-17T08:27:40.329Z,1006.1
2017-08-17T08:28:41.961Z,1006.1
2017-08-17T08:29:43.590Z,1006.0
2017-08-17T08:30:45.224Z,1006.0
2017-08-17T08:31:46.860Z,1005.9
2017-08-17T08:32:48.500Z,1006.0
2017-08-17T08:33:50.139Z,1006.0
2017-08-17T08:34:51.772Z,1005.9
2017-08-17T08:35:53.412Z,1006.0
2017-08-17T08:36:55.047Z,1005.9
2017-08-17T08:37:56.674Z,1005.9
2017-08-17T08:38:58.311Z,1006.0
2017-08-17T08:39:59.943Z,1005.9
2017-08-17T08:41:01.579Z,1005.9
2017-08-17T08:42:03.211Z,1005.9
2017-08-17T08:43:04.848Z,1005.8
2017-08-17T08:44:06.483Z,1005.8
2017-08-17T08:45:08.119Z,1005.9
2017-08-17T08:46:09.745Z,1005.8
2017-08-17T08:47:11.377Z,1005.8
2017-08-17T08:48:13.022Z,1005.8
2017-08-17T08:49:14.657Z,1005.9
2017-08-17T08:50:16.291Z,1005.8
2017-08-17T08:51:17.917Z,1005.8
2017-08-17T08:52:19.558Z,1005.8
2017-08-17T08:53:21.205Z,1005.8
2017-08-17T08:54:22.830Z,1005.7
2017-08-17T08:55:24.464Z,1005.8
2017-08-17T08:56:26.102Z,1005.7
2017-08-17T08:57:27.752Z,1005.8
2017-08-17T08:58:29.369Z,1005.7
2017-08-17T08:59:30.999Z,1005.7
2017-08-17T09:00:32.641Z,1005.7
2017-08-17T09:01:34.276Z,1005.7
2017-08-17T09:02:35.906Z,1005.7
2017-08-17T09:03:37.549Z,1005.7
2017-08-17T09:04:39.180Z,1005.6
2017-08-17T09:05:40.811Z,1005.6
2017-08-17T09:06:42.445Z,1005.7
2017-08-17T09:07:44.074Z,1005.7
2017-08-17T09:08:45.710Z,1005.6
2017-08-17T09:09:47.357Z,1005.6
2017-08-17T09:10:48.986Z,1005.7
2017-08-17T09:11:50.619Z,1005.6
2017-08-17T09:12:52.258Z,1005.6
2017-08-17T09:13:53.892Z,1005.7
2017-08-17T09:14:55.521Z,1005.6
2017-08-17T09:15:57.156Z,1005.6
2017-08-17T09:16:58.793Z,1005.6
2017-08-17T09:18:00.436Z,1005.6
2017-08-17T09:19:02.067Z,1005.6
2017-08-17T09:20:03.728Z,1005.6
2017-08-17T09:21:05.352Z,1005.6
2017-08-17T09:22:06.986Z,1005.6
2017-08-17T09:23:08.626Z,1005.6
2017-08-17T09:24:10.258Z,1005.6
2017-08-17T09:25:11.901Z,1005.6
2017-08-17T09:26:13.536Z,1005.6
2017-08-17T09:27:15.164Z,1005.6
2017-08-17T09:28:16.870Z,1005.5
2017-08-17T09:29:18.511Z,1005.6
2017-08-17T09:30:20.144Z,1005.5
2017-08-17T09:31:21.772Z,1005.6
2017-08-17T09:32:23.409Z,1005.7
2017-08-17T09:33:25.039Z,1005.5
2017-08-17T09:34:26.670Z,1005.6
2017-08-17T09:35:28.307Z,1005.7
2017-08-17T09:36:29.945Z,1005.5
2017-08-17T09:37:31.573Z,1005.6
2017-08-17T09:38:33.206Z,1005.5
2017-08-17T09:39:34.846Z,1005.5
2017-08-17T09:40:36.488Z,1005.5
2017-08-17T09:41:38.113Z,1005.5
2017-08-17T09:42:39.746Z,1005.5
2017-08-17T09:43:41.382Z,1005.4
2017-08-17T09:44:43.016Z,1005.4
2017-08-17T09:45:44.642Z,1005.3
2017-08-17T09:46:46.275Z,1005.3
2017-08-17T09:47:47.919Z,1005.3
2017-08-17T09:48:49.558Z,1005.3
2017-08-17T09:49:51.187Z,1005.3
2017-08-17T09:50:52.816Z,1005.3
2017-08-17T09:51:54.455Z,1005.3
2017-08-17T09:52:56.089Z,1005.4
2017-08-17T09:53:57.721Z,1005.3
2017-08-17T09:54:59.352Z,1005.3
2017-08-17T09:56:00.992Z,1005.3
2017-08-17T09:57:02.621Z,1005.2
2017-08-17T09:58:04.249Z,1005.2
2017-08-17T09:59:05.881Z,1005.2
2017-08-17T10:00:07.523Z,1005.2
2017-08-17T10:01:09.163Z,1005.2
2017-08-17T10:02:10.795Z,1005.2
2017-08-17T10:03:12.424Z,1005.2
2017-08-17T10:04:14.057Z,1005.2
2017-08-17T10:05:15.692Z,1005.2
2017-08-17T10:06:17.323Z,1005.2
2017-08-17T10:07:18.955Z,1005.2
2017-08-17T10:08:20.597Z,1005.1
2017-08-17T10:09:22.230Z,1005.2
2017-08-17T10:10:23.874Z,1005.1
2017-08-17T10:11:25.513Z,1005.1
2017-08-17T10:12:27.139Z,1005.1
2017-08-17T10:13:28.781Z,1005.0
2017-08-17T10:14:30.408Z,1005.0
2017-08-17T10:15:32.042Z,1005.0
2017-08-17T10:16:34.108Z,1005.0
2017-08-17T10:17:35.739Z,1005.0
2017-08-17T10:18:37.368Z,1005.1
2017-08-17T10:19:38.996Z,1005.0
2017-08-17T10:20:40.636Z,1005.0
2017-08-17T10:21:42.277Z,1005.0
2017-08-17T10:22:43.907Z,1005.1
2017-08-17T10:23:45.543Z,1005.0
2017-08-17T10:24:47.176Z,1005.0
2017-08-17T10:25:48.808Z,1005.1
2017-08-17T10:26:50.446Z,1005.1
2017-08-17T10:27:52.081Z,1005.1
2017-08-17T10:28:53.713Z,1005.1
2017-08-17T10:29:55.344Z,1005.2
2017-08-17T10:30:56.978Z,1005.1
2017-08-17T10:31:58.608Z,1005.1
2017-08-17T10:33:00.251Z,1005.1
2017-08-17T10:34:01.894Z,1005.1
2017-08-17T10:35:03.520Z,1005.0
2017-08-17T10:36:05.154Z,1005.0
2017-08-17T10:37:06.792Z,1005.0
2017-08-17T10:38:08.428Z,1005.0
2017-08-17T10:39:10.056Z,1004.9
2017-08-17T10:40:11.686Z,1004.9
2017-08-17T10:41:13.329Z,1004.9
2017-08-17T10:42:14.970Z,1004.9
2017-08-17T10:43:16.599Z,1004.9
2017-08-17T10:44:18.243Z,1004.9
2017-08-17T10:45:19.879Z,1004.9
2017-08-17T10:46:21.517Z,1004.9
2017-08-17T10:47:23.144Z,1004.9
2017-08-17T10:48:24.776Z,1004.9
2017-08-17T10:49:26.412Z,1004.9
2017-08-17T10:50:28.047Z,1004.8
2017-08-17T10:51:29.679Z,1004.8
2017-08-17T10:52:31.311Z,1004.8
2017-08-17T10:53:32.950Z,1004.9
2017-08-17T10:54:34.589Z,1004.9
2017-08-17T10:55:36.217Z,1004.9
2017-08-17T10:56:37.849Z,1004.9
2017-08-17T10:57:39.485Z,1005.0
2017-08-17T10:58:41.114Z,1005.0
2017-08-17T10:59:42.750Z,1005.0
2017-08-17T11:00:44.386Z,1005.0
2017-08-17T11:01:46.025Z,1005.0
2017-08-17T11:02:47.658Z,1004.9
2017-08-17T11:03:49.288Z,1004.9
2017-08-17T11:04:50.920Z,1004.9
2017-08-17T11:05:52.571Z,1005.0
2017-08-17T11:06:54.213Z,1005.0
2017-08-17T11:07:55.841Z,1004.9
2017-08-17T11:08:57.481Z,1005.0
2017-08-17T11:09:59.114Z,1005.0
2017-08-17T11:11:00.747Z,1004.9
2017-08-17T11:12:02.378Z,1005.0
2017-08-17T11:13:04.011Z,1005.0
2017-08-17T11:14:05.656Z,1004.9
2017-08-17T11:15:07.317Z,1004.9
2017-08-17T11:16:08.935Z,1004.8
2017-08-17T11:17:10.564Z,1004.9
2017-08-17T11:18:12.193Z,1004.9
2017-08-17T11:19:13.828Z,1004.9
2017-08-17T11:20:15.461Z,1004.9
2017-08-17T11:21:17.105Z,1005.0
2017-08-17T11:22:18.738Z,1004.9
2017-08-17T11:23:20.374Z,1004.8
2017-08-17T11:24:22.001Z,1004.8
2017-08-17T11:25:23.633Z,1004.9
2017-08-17T11:26:25.276Z,1004.8
2017-08-17T11:27:26.921Z,1004.8
2017-08-17T11:28:28.554Z,1004.9
2017-08-17T11:29:30.190Z,1004.9
2017-08-17T11:30:31.822Z,1004.9
2017-08-17T11:31:33.457Z,1005.0
2017-08-17T11:32:35.138Z,1004.9
2017-08-17T11:33:36.769Z,1004.9
2017-08-17T11:34:38.404Z,1005.1
2017-08-17T11:35:40.039Z,1004.9
2017-08-17T11:36:41.671Z,1004.9
2017-08-17T11:37:43.308Z,1005.0
2017-08-17T11:38:44.947Z,1004.9
2017-08-17T11:39:46.589Z,1004.9
2017-08-17T11:40:48.220Z,1004.9
2017-08-17T11:41:49.855Z,1004.9
2017-08-17T11:42:51.499Z,1004.8
2017-08-17T11:43:53.127Z,1004.8
2017-08-17T11:44:54.769Z,1004.9
2017-08-17T11:45:56.402Z,1004.9
2017-08-17T11:46:58.031Z,1004.8
2017-08-17T11:47:59.672Z,1004.8
2017-08-17T11:49:01.308Z,1004.8
2017-08-17T11:50:02.940Z,1004.9
2017-08-17T11:51:04.570Z,1004.8
2017-08-17T11:52:06.203Z,1004.9
2017-08-17T11:53:07.840Z,1004.8
2017-08-17T11:54:09.481Z,1004.7
2017-08-17T11:55:11.112Z,1004.7
2017-08-17T11:56:12.749Z,1004.6
2017-08-17T11:57:14.390Z,1004.6
2017-08-17T11:58:16.017Z,1004.6
2017-08-17T11:59:17.653Z,1004.6
2017-08-17T12:00:19.284Z,1004.6
2017-08-17T12:01:20.922Z,1004.6
2017-08-17T12:02:22.562Z,1004.6
2017-08-17T12:03:24.192Z,1004.7
2017-08-17T12:04:25.837Z,1004.6
2017-08-17T12:05:27.477Z,1004.6
2017-08-17T12:06:29.108Z,1004.5
2017-08-17T12:07:30.737Z,1004.5
2017-08-17T12:08:32.369Z,1004.5
2017-08-17T12:09:34.013Z,1004.5
2017-08-17T12:10:35.650Z,1004.6
2017-08-17T12:11:37.284Z,1004.6
2017-08-17T12:12:38.927Z,1004.5
2017-08-17T12:13:40.560Z,1004.5
2017-08-17T12:14:42.190Z,1004.6
2017-08-17T12:15:43.822Z,1004.6
2017-08-17T12:16:45.455Z,1004.5
2017-08-17T12:17:47.098Z,1004.5
2017-08-17T12:18:48.735Z,1004.5
2017-08-17T12:19:50.364Z,1004.4
2017-08-17T12:20:51.998Z,1004.4
2017-08-17T12:21:53.628Z,1004.5
2017-08-17T12:22:55.271Z,1004.5
2017-08-17T12:23:56.906Z,1004.4
2017-08-17T12:24:58.547Z,1004.5
2017-08-17T12:26:00.182Z,1004.5
2017-08-17T12:27:01.816Z,1004.6
2017-08-17T12:28:03.448Z,1004.6
2017-08-17T12:29:05.076Z,1004.5
2017-08-17T12:30:06.746Z,1004.5
2017-08-17T12:31:08.379Z,1004.7
2017-08-17T12:32:10.012Z,1004.8
2017-08-17T12:33:11.648Z,1004.6
2017-08-17T12:34:13.282Z,1004.6
2017-08-17T12:35:14.922Z,1004.6
2017-08-17T12:36:16.548Z,1004.6
2017-08-17T12:37:18.179Z,1004.5
2017-08-17T12:38:19.813Z,1004.6
2017-08-17T12:39:21.452Z,1004.6
2017-08-17T12:40:23.098Z,1004.6
2017-08-17T12:41:24.730Z,1004.5
2017-08-17T12:42:26.377Z,1004.6
2017-08-17T12:43:28.003Z,1004.6
2017-08-17T12:44:29.634Z,1004.7
2017-08-17T12:45:31.267Z,1004.7
2017-08-17T12:46:32.908Z,1004.6
2017-08-17T12:47:34.551Z,1004.7
2017-08-17T12:48:36.178Z,1004.6